createdAt,value
2024-05-09T00:00:44.973Z,7.40
2024-05-09T00:03:32.659Z,7.38
2024-05-09T00:06:01.182Z,7.36
2024-05-09T00:08:29.003Z,7.34
2024-05-09T00:10:56.717Z,7.33
2024-05-09T00:13:24.296Z,7.30
2024-05-09T00:15:51.790Z,7.27
2024-05-09T00:18:20.812Z,7.25
2024-05-09T00:20:48.446Z,7.24
2024-05-09T00:23:16.114Z,7.23
2024-05-09T00:25:44.363Z,7.20
2024-05-09T00:28:12.803Z,7.20
2024-05-09T00:30:40.692Z,7.18
2024-05-09T00:33:09.866Z,7.16
2024-05-09T00:35:38.961Z,7.15
2024-05-09T00:38:06.785Z,7.13
2024-05-09T00:40:42.895Z,7.12
2024-05-09T00:43:12.106Z,7.10
2024-05-09T00:45:40.539Z,7.04
2024-05-09T00:48:09.681Z,7.07
2024-05-09T00:50:41.945Z,7.05
2024-05-09T00:53:13.362Z,7.02
2024-05-09T00:55:40.779Z,6.96
2024-05-09T00:58:09.618Z,6.95
2024-05-09T01:00:40.020Z,6.90
2024-05-09T01:03:11.527Z,6.86
2024-05-09T01:05:41.478Z,6.83
2024-05-09T01:08:09.735Z,6.80
2024-05-09T01:10:37.783Z,6.78
2024-05-09T01:13:05.869Z,6.75
2024-05-09T01:15:34.043Z,6.74
2024-05-09T01:18:04.346Z,6.75
2024-05-09T01:20:40.475Z,6.73
2024-05-09T01:23:11.617Z,6.64
2024-05-09T01:25:39.722Z,6.69
2024-05-09T01:28:07.480Z,6.67
2024-05-09T01:30:37.249Z,6.63
2024-05-09T01:33:07.565Z,6.60
2024-05-09T01:35:36.978Z,6.58
2024-05-09T01:38:04.815Z,6.55
2024-05-09T01:40:38.000Z,6.52
2024-05-09T01:43:10.457Z,6.50
2024-05-09T01:45:40.066Z,6.48
2024-05-09T01:48:08.721Z,6.44
2024-05-09T01:50:40.420Z,6.41
2024-05-09T01:53:10.894Z,6.38
2024-05-09T01:55:38.748Z,6.35
2024-05-09T01:58:06.921Z,6.32
2024-05-09T02:00:39.883Z,6.31
2024-05-09T02:03:11.785Z,6.29
2024-05-09T02:05:42.558Z,6.28
2024-05-09T02:08:17.209Z,6.28
2024-05-09T02:10:45.547Z,6.28
2024-05-09T02:13:13.520Z,6.28
2024-05-09T02:15:41.111Z,6.28
2024-05-09T02:18:09.914Z,6.23
2024-05-09T02:20:38.639Z,6.24
2024-05-09T02:23:08.446Z,6.22
2024-05-09T02:25:36.120Z,6.20
2024-05-09T02:28:03.814Z,6.17
2024-05-09T02:30:39.258Z,6.15
2024-05-09T02:33:11.077Z,6.12
2024-05-09T02:35:40.846Z,6.11
2024-05-09T02:38:09.081Z,6.10
2024-05-09T02:40:38.907Z,6.10
2024-05-09T02:43:08.266Z,6.09
2024-05-09T02:45:36.617Z,6.08
2024-05-09T02:48:05.088Z,6.06
2024-05-09T02:50:37.972Z,6.01
2024-05-09T02:53:08.234Z,6.02
2024-05-09T02:55:36.226Z,5.99
2024-05-09T02:58:03.953Z,5.97
2024-05-09T03:00:38.297Z,5.96
2024-05-09T03:03:10.612Z,5.94
2024-05-09T03:05:40.487Z,5.91
2024-05-09T03:08:08.429Z,5.89
2024-05-09T03:10:38.278Z,5.86
2024-05-09T03:13:12.229Z,5.85
2024-05-09T03:15:40.618Z,5.83
2024-05-09T03:18:09.271Z,5.79
2024-05-09T03:20:40.159Z,5.78
2024-05-09T03:23:09.334Z,5.70
2024-05-09T03:25:38.547Z,5.79
2024-05-09T03:28:06.582Z,5.79
2024-05-09T03:30:42.163Z,5.80
2024-05-09T03:33:13.356Z,5.79
2024-05-09T03:35:43.214Z,5.77
2024-05-09T03:38:10.833Z,5.76
2024-05-09T03:40:44.790Z,5.76
2024-05-09T03:43:13.332Z,5.77
2024-05-09T03:45:42.040Z,5.77
2024-05-09T03:48:09.872Z,5.79
2024-05-09T03:50:37.957Z,5.80
2024-05-09T03:53:06.849Z,5.80
2024-05-09T03:55:34.378Z,5.81
2024-05-09T03:58:02.402Z,5.81
2024-05-09T04:00:37.354Z,5.81
2024-05-09T04:03:09.709Z,5.83
2024-05-09T04:05:41.391Z,5.82
2024-05-09T04:08:11.639Z,5.85
2024-05-09T04:10:39.354Z,5.86
2024-05-09T04:13:06.931Z,5.89
2024-05-09T04:15:34.401Z,5.93
2024-05-09T04:18:02.650Z,5.95
2024-05-09T04:20:37.783Z,5.99
2024-05-09T04:23:10.687Z,6.04
2024-05-09T04:25:41.649Z,6.06
2024-05-09T04:28:09.156Z,6.10
2024-05-09T04:30:39.834Z,6.13
2024-05-09T04:33:11.801Z,6.16
2024-05-09T04:35:42.130Z,6.19
2024-05-09T04:38:10.126Z,6.22
2024-05-09T04:40:38.251Z,6.26
2024-05-09T04:43:06.789Z,6.29
2024-05-09T04:45:35.148Z,6.33
2024-05-09T04:48:03.487Z,6.37
2024-05-09T04:50:36.875Z,6.38
2024-05-09T04:53:08.488Z,6.38
2024-05-09T04:55:37.446Z,6.39
2024-05-09T04:58:08.181Z,6.40
2024-05-09T05:00:38.873Z,6.41
2024-05-09T05:03:10.077Z,6.43
2024-05-09T05:05:40.495Z,6.48
2024-05-09T05:08:12.030Z,6.54
2024-05-09T05:10:39.870Z,6.60
2024-05-09T05:13:16.689Z,6.67
2024-05-09T05:15:47.603Z,6.75
2024-05-09T05:18:15.491Z,6.83
2024-05-09T05:20:43.270Z,6.89
2024-05-09T05:23:12.153Z,6.96
2024-05-09T05:25:40.479Z,7.04
2024-05-09T05:28:08.403Z,7.14
2024-05-09T05:30:37.277Z,7.23
2024-05-09T05:33:05.753Z,7.34
2024-05-09T05:35:34.366Z,7.44
2024-05-09T05:38:02.995Z,7.53
2024-05-09T05:40:36.524Z,7.68
2024-05-09T05:43:10.603Z,7.79
2024-05-09T05:45:39.031Z,7.91
2024-05-09T05:48:09.776Z,8.05
2024-05-09T05:50:38.582Z,8.16
2024-05-09T05:53:07.977Z,8.27
2024-05-09T05:55:39.818Z,8.40
2024-05-09T05:58:11.392Z,8.51
2024-05-09T06:00:41.926Z,8.61
2024-05-09T06:03:11.799Z,8.72
2024-05-09T06:05:40.788Z,8.78
2024-05-09T06:08:09.243Z,8.91
2024-05-09T06:10:39.877Z,8.99
2024-05-09T06:13:12.173Z,9.09
2024-05-09T06:15:42.800Z,9.21
2024-05-09T06:18:12.152Z,9.33
2024-05-09T06:20:43.281Z,9.43
2024-05-09T06:23:13.026Z,9.52
2024-05-09T06:25:41.788Z,9.61
2024-05-09T06:28:09.464Z,9.73
2024-05-09T06:30:40.156Z,9.83
2024-05-09T06:33:11.158Z,9.98
2024-05-09T06:35:40.963Z,10.11
2024-05-09T06:38:09.014Z,10.23
2024-05-09T06:40:41.008Z,10.40
2024-05-09T06:43:18.268Z,10.49
2024-05-09T06:45:48.548Z,10.63
2024-05-09T06:48:20.314Z,10.63
2024-05-09T06:50:48.655Z,10.80
2024-05-09T06:53:16.869Z,10.89
2024-05-09T06:55:44.621Z,10.97
2024-05-09T06:58:12.227Z,11.08
2024-05-09T07:00:41.567Z,11.16
2024-05-09T07:03:16.733Z,11.26
2024-05-09T07:05:48.804Z,11.36
2024-05-09T07:08:17.793Z,11.48
2024-05-09T07:10:48.216Z,11.61
2024-05-09T07:13:16.151Z,11.74
2024-05-09T07:15:43.881Z,11.85
2024-05-09T07:18:32.191Z,11.97
2024-05-09T07:20:59.888Z,12.10
2024-05-09T07:23:27.942Z,12.21
2024-05-09T07:25:57.794Z,12.33
2024-05-09T07:28:26.044Z,12.43
2024-05-09T07:30:55.876Z,12.52
2024-05-09T07:33:24.478Z,12.68
2024-05-09T07:35:53.172Z,12.82
2024-05-09T07:38:21.091Z,12.96
2024-05-09T07:40:49.205Z,13.09
2024-05-09T07:43:19.383Z,13.24
2024-05-09T07:45:52.570Z,13.38
2024-05-09T07:52:38.211Z,13.61
2024-05-09T07:53:46.153Z,13.72
2024-05-09T07:56:18.110Z,13.83
2024-05-09T07:58:46.282Z,13.95
2024-05-09T08:01:14.207Z,14.03
2024-05-09T08:03:41.944Z,14.08
2024-05-09T08:06:09.638Z,14.12
2024-05-09T08:08:37.104Z,14.18
2024-05-09T08:11:06.135Z,14.21
2024-05-09T08:13:33.729Z,14.23
2024-05-09T08:16:01.336Z,14.28
2024-05-09T08:18:29.112Z,14.35
2024-05-09T08:20:57.535Z,14.40
2024-05-09T08:23:28.640Z,14.39
2024-05-09T08:25:56.249Z,14.46
2024-05-09T08:28:24.950Z,14.52
2024-05-09T08:30:52.845Z,14.55
2024-05-09T08:33:20.613Z,14.57
2024-05-09T08:35:48.682Z,14.61
2024-05-09T08:38:16.527Z,14.66
2024-05-09T08:40:44.242Z,14.74
2024-05-09T08:43:12.971Z,14.78
2024-05-09T08:45:45.065Z,14.84
2024-05-09T08:48:15.114Z,14.89
2024-05-09T08:50:45.264Z,14.90
2024-05-09T08:53:15.136Z,14.95
2024-05-09T08:55:44.059Z,15.01
2024-05-09T08:58:16.445Z,15.03
2024-05-09T09:00:45.409Z,15.12
2024-05-09T09:03:21.642Z,15.17
2024-05-09T09:06:01.098Z,15.22
2024-05-09T09:08:30.733Z,15.26
2024-05-09T09:10:58.634Z,15.36
2024-05-09T09:13:26.555Z,15.40
2024-05-09T09:15:57.564Z,15.41
2024-05-09T09:18:26.030Z,15.41
2024-05-09T09:20:53.660Z,15.40
2024-05-09T09:23:21.606Z,15.43
2024-05-09T09:25:49.666Z,15.49
2024-05-09T09:28:17.288Z,15.59
2024-05-09T09:30:45.367Z,15.68
2024-05-09T09:33:14.657Z,15.74
2024-05-09T09:35:42.315Z,15.81
2024-05-09T09:38:10.954Z,15.85
2024-05-09T09:40:46.617Z,15.89
2024-05-09T09:43:21.561Z,15.97
2024-05-09T09:45:53.682Z,16.02
2024-05-09T09:48:22.019Z,16.13
2024-05-09T09:50:51.405Z,16.18
2024-05-09T09:53:19.302Z,16.23
2024-05-09T09:55:48.737Z,16.30
2024-05-09T09:58:17.451Z,16.36
2024-05-09T10:00:45.628Z,16.47
2024-05-09T10:03:13.418Z,16.62
2024-05-09T10:05:44.023Z,16.80
2024-05-09T10:08:13.822Z,16.94
2024-05-09T10:10:46.140Z,17.16
2024-05-09T10:13:15.061Z,17.40
2024-05-09T10:15:46.552Z,17.70
2024-05-09T10:18:14.985Z,17.97
2024-05-09T10:20:42.911Z,18.18
2024-05-09T10:23:34.213Z,18.33
2024-05-09T10:26:03.616Z,18.53
2024-05-09T10:28:35.371Z,18.81
2024-05-09T10:31:09.985Z,19.13
2024-05-09T10:33:38.353Z,19.44
2024-05-09T10:36:18.660Z,19.74
2024-05-09T10:38:46.161Z,20.03
2024-05-09T10:41:13.714Z,20.29
2024-05-09T10:43:41.477Z,20.60
2024-05-09T10:46:09.730Z,20.90
2024-05-09T10:48:37.857Z,21.19
2024-05-09T10:51:07.726Z,21.39
2024-05-09T10:53:45.077Z,21.47
2024-05-09T10:56:16.196Z,21.61
2024-05-09T10:58:43.992Z,21.90
2024-05-09T11:01:11.824Z,22.14
2024-05-09T11:03:40.006Z,22.26
2024-05-09T11:06:09.804Z,22.35
2024-05-09T11:08:37.590Z,22.42
2024-05-09T11:11:07.159Z,22.55
2024-05-09T11:13:36.935Z,22.77
2024-05-09T11:16:15.784Z,22.89
2024-05-09T11:18:43.774Z,22.84
2024-05-09T11:21:12.103Z,22.79
2024-05-09T11:23:39.712Z,22.76
2024-05-09T11:26:07.485Z,22.79
2024-05-09T11:28:35.086Z,22.83
2024-05-09T11:31:10.081Z,22.92
2024-05-09T11:33:47.964Z,22.96
2024-05-09T11:36:16.422Z,22.93
2024-05-09T11:38:43.981Z,22.98
2024-05-09T11:41:18.169Z,23.08
2024-05-09T11:43:45.722Z,23.10
2024-05-09T11:46:13.523Z,23.09
2024-05-09T11:48:41.488Z,23.06
2024-05-09T11:51:09.134Z,23.17
2024-05-09T11:53:36.802Z,23.36
2024-05-09T11:56:04.622Z,23.48
2024-05-09T11:58:36.690Z,23.51
2024-05-09T12:01:04.687Z,23.45
2024-05-09T12:03:34.632Z,23.38
2024-05-09T12:06:02.390Z,23.39
2024-05-09T12:08:30.044Z,23.65
2024-05-09T12:10:57.603Z,23.90
2024-05-09T12:13:25.299Z,23.85
2024-05-09T12:15:54.026Z,23.84
2024-05-09T12:18:21.564Z,23.90
2024-05-09T12:20:49.095Z,23.84
2024-05-09T12:23:16.568Z,23.89
2024-05-09T12:25:44.072Z,24.05
2024-05-09T12:28:11.743Z,24.16
2024-05-09T12:30:41.473Z,24.27
2024-05-09T12:33:11.310Z,24.40
2024-05-09T12:35:39.934Z,24.48
2024-05-09T12:38:07.566Z,24.45
2024-05-09T12:40:38.036Z,24.57
2024-05-09T12:43:07.254Z,24.70
2024-05-09T12:45:35.484Z,24.82
2024-05-09T12:48:04.436Z,25.09
2024-05-09T12:50:34.157Z,25.37
2024-05-09T12:53:03.724Z,25.57
2024-05-09T12:55:40.496Z,25.83
2024-05-09T12:58:16.978Z,25.80
2024-05-09T13:00:45.562Z,25.83
2024-05-09T13:03:13.473Z,25.72
2024-05-09T13:05:44.610Z,25.80
2024-05-09T13:08:13.691Z,25.93
2024-05-09T13:10:41.499Z,26.06
2024-05-09T13:13:10.161Z,26.29
2024-05-09T13:15:37.908Z,26.47
2024-05-09T13:18:06.095Z,26.64
2024-05-09T13:20:36.095Z,26.80
2024-05-09T13:23:04.962Z,27.03
2024-05-09T13:25:34.359Z,27.13
2024-05-09T13:28:02.943Z,27.24
2024-05-09T13:30:38.828Z,27.34
2024-05-09T13:33:15.292Z,27.53
2024-05-09T13:35:47.276Z,27.61
2024-05-09T13:38:19.934Z,27.49
2024-05-09T13:40:48.439Z,27.45
2024-05-09T13:43:17.270Z,27.59
2024-05-09T13:45:44.959Z,27.60
2024-05-09T13:48:12.994Z,27.67
2024-05-09T13:50:40.764Z,27.67
2024-05-09T13:53:09.105Z,27.39
2024-05-09T13:55:41.494Z,27.15
2024-05-09T13:58:09.634Z,27.06
2024-05-09T14:00:44.963Z,27.18
2024-05-09T14:03:17.672Z,27.35
2024-05-09T14:05:47.178Z,27.45
2024-05-09T14:08:17.563Z,27.56
2024-05-09T14:10:48.498Z,27.57
2024-05-09T14:13:16.399Z,27.63
2024-05-09T14:15:44.176Z,27.57
2024-05-09T14:18:13.762Z,27.53
2024-05-09T14:20:43.322Z,27.56
2024-05-09T14:23:11.063Z,27.41
2024-05-09T14:25:42.068Z,27.35
2024-05-09T14:28:12.446Z,27.40
2024-05-09T14:30:41.369Z,27.53
2024-05-09T14:33:09.674Z,27.71
2024-05-09T14:35:38.410Z,27.99
2024-05-09T14:38:07.747Z,28.08
2024-05-09T14:40:41.322Z,28.33
2024-05-09T14:43:16.529Z,28.58
2024-05-09T14:45:44.442Z,28.78
2024-05-09T14:48:14.440Z,29.03
2024-05-09T14:50:42.134Z,29.22
2024-05-09T14:53:10.739Z,29.34
2024-05-09T14:55:39.291Z,29.44
2024-05-09T14:58:08.371Z,29.56
2024-05-09T15:00:40.134Z,29.63
2024-05-09T15:03:09.994Z,29.75
2024-05-09T15:05:37.745Z,29.85
2024-05-09T15:08:06.285Z,29.78
2024-05-09T15:10:36.189Z,29.78
2024-05-09T15:13:06.027Z,29.46
2024-05-09T15:15:36.250Z,29.16
2024-05-09T15:18:04.663Z,29.02
2024-05-09T15:20:36.081Z,28.78
2024-05-09T15:23:05.095Z,28.47
2024-05-09T15:25:33.254Z,28.43
2024-05-09T15:28:01.386Z,28.59
2024-05-09T15:30:32.290Z,28.86
2024-05-09T15:33:03.391Z,29.07
2024-05-09T15:35:31.401Z,29.19
2024-05-09T15:37:59.091Z,29.22
2024-05-09T15:40:35.659Z,29.08
2024-05-09T15:43:07.928Z,28.74
2024-05-09T15:45:37.247Z,28.60
2024-05-09T15:48:05.892Z,28.70
2024-05-09T15:50:38.818Z,28.74
2024-05-09T15:53:10.776Z,28.80
2024-05-09T15:55:38.723Z,28.89
2024-05-09T15:58:07.157Z,28.89
2024-05-09T16:00:39.469Z,28.85
2024-05-09T16:03:12.766Z,28.76
2024-05-09T16:05:43.910Z,28.62
2024-05-09T16:08:12.282Z,28.56
2024-05-09T16:10:44.132Z,28.47
2024-05-09T16:13:16.281Z,28.22
2024-05-09T16:15:44.435Z,28.07
2024-05-09T16:18:12.374Z,27.96
2024-05-09T16:20:42.244Z,27.76
2024-05-09T16:23:11.543Z,27.41
2024-05-09T16:25:39.656Z,27.26
2024-05-09T16:28:10.166Z,27.15
2024-05-09T16:30:39.422Z,26.85
2024-05-09T16:33:08.146Z,26.59
2024-05-09T16:35:36.846Z,26.21
2024-05-09T16:38:04.604Z,26.00
2024-05-09T16:40:38.643Z,25.77
2024-05-09T16:43:09.224Z,25.49
2024-05-09T16:45:38.438Z,25.28
2024-05-09T16:48:06.921Z,25.12
2024-05-09T16:50:37.435Z,24.98
2024-05-09T16:53:05.965Z,24.81
2024-05-09T16:55:35.744Z,24.56
2024-05-09T16:58:04.443Z,24.30
2024-05-09T17:00:40.188Z,24.10
2024-05-09T17:03:13.096Z,23.87
2024-05-09T17:05:42.390Z,23.71
2024-05-09T17:08:10.403Z,23.56
2024-05-09T17:10:38.174Z,23.32
2024-05-09T17:13:07.431Z,23.08
2024-05-09T17:15:37.329Z,22.76
2024-05-09T17:18:06.170Z,22.51
2024-05-09T17:20:36.381Z,22.23
2024-05-09T17:23:12.097Z,22.07
2024-05-09T17:25:39.890Z,21.96
2024-05-09T17:28:08.477Z,21.85
2024-05-09T17:30:38.413Z,21.78
2024-05-09T17:33:13.212Z,21.68
2024-05-09T17:35:41.496Z,21.62
2024-05-09T17:38:09.173Z,21.55
2024-05-09T17:40:38.373Z,21.45
2024-05-09T17:43:09.095Z,21.36
2024-05-09T17:45:40.080Z,21.26
2024-05-09T17:48:09.669Z,21.16
2024-05-09T17:50:38.265Z,21.03
2024-05-09T17:53:06.479Z,20.90
2024-05-09T17:55:34.827Z,20.81
2024-05-09T17:58:04.124Z,20.66
2024-05-09T18:00:38.686Z,20.44
2024-05-09T18:03:11.817Z,20.22
2024-05-09T18:05:40.823Z,19.96
2024-05-09T18:08:08.898Z,19.76
2024-05-09T18:10:39.359Z,19.55
2024-05-09T18:13:08.945Z,19.38
2024-05-09T18:15:39.427Z,19.19
2024-05-09T18:18:07.864Z,19.01
2024-05-09T18:20:42.135Z,18.76
2024-05-09T18:23:14.519Z,18.63
2024-05-09T18:25:43.357Z,18.42
2024-05-09T18:28:11.022Z,18.24
2024-05-09T18:30:39.956Z,18.07
2024-05-09T18:33:09.613Z,17.91
2024-05-09T18:35:37.293Z,17.74
2024-05-09T18:38:05.463Z,17.58
2024-05-09T18:40:36.681Z,17.44
2024-05-09T18:43:07.526Z,17.28
2024-05-09T18:45:39.779Z,17.14
2024-05-09T18:48:08.952Z,16.97
2024-05-09T18:50:39.597Z,16.83
2024-05-09T18:53:09.958Z,16.68
2024-05-09T18:55:37.711Z,16.54
2024-05-09T18:58:05.448Z,16.40
2024-05-09T19:00:36.584Z,16.24
2024-05-09T19:03:09.124Z,16.06
2024-05-09T19:05:39.162Z,15.97
2024-05-09T19:08:07.529Z,15.85
2024-05-09T19:10:36.968Z,15.80
2024-05-09T19:13:09.171Z,15.69
2024-05-09T19:15:40.368Z,15.58
2024-05-09T19:18:09.288Z,15.48
2024-05-09T19:20:37.614Z,15.37
2024-05-09T19:23:06.598Z,15.30
2024-05-09T19:25:35.353Z,15.23
2024-05-09T19:28:04.071Z,15.16
2024-05-09T19:30:38.708Z,15.11
2024-05-09T19:33:12.632Z,15.04
2024-05-09T19:35:41.457Z,14.96
2024-05-09T19:38:09.061Z,14.88
2024-05-09T19:40:36.922Z,14.80
2024-05-09T19:43:05.933Z,14.77
2024-05-09T19:45:35.200Z,14.71
2024-05-09T19:48:04.892Z,14.65
2024-05-09T19:50:40.948Z,14.59
2024-05-09T19:53:12.702Z,14.51
2024-05-09T19:55:40.994Z,14.43
2024-05-09T19:58:09.155Z,14.33
2024-05-09T20:00:39.706Z,14.32
2024-05-09T20:03:14.108Z,14.23
2024-05-09T20:05:45.522Z,14.11
2024-05-09T20:08:13.893Z,14.08
2024-05-09T20:10:41.520Z,14.04
2024-05-09T20:13:09.318Z,13.96
2024-05-09T20:15:38.941Z,13.88
2024-05-09T20:18:09.137Z,13.79
2024-05-09T20:20:40.556Z,13.73
2024-05-09T20:23:11.294Z,13.67
2024-05-09T20:25:39.210Z,13.60
2024-05-09T20:28:07.184Z,13.53
2024-05-09T20:30:36.734Z,13.47
2024-05-09T20:33:07.022Z,13.43
2024-05-09T20:35:36.120Z,13.38
2024-05-09T20:38:04.429Z,13.34
2024-05-09T20:40:36.269Z,13.31
2024-05-09T20:43:07.701Z,13.28
2024-05-09T20:45:35.930Z,13.26
2024-05-09T20:48:04.090Z,13.23
2024-05-09T20:50:37.885Z,13.16
2024-05-09T20:53:09.640Z,13.07
2024-05-09T20:55:37.612Z,13.02
2024-05-09T20:58:05.354Z,12.99
2024-05-09T21:00:39.452Z,12.94
2024-05-09T21:03:11.398Z,12.91
2024-05-09T21:05:39.878Z,12.89
2024-05-09T21:10:37.172Z,12.84
2024-05-09T21:13:06.476Z,12.81
2024-05-09T21:15:35.332Z,12.81
2024-05-09T21:18:03.953Z,12.81
2024-05-09T21:20:34.033Z,12.80
2024-05-09T21:23:02.276Z,12.79
2024-05-09T21:25:30.522Z,12.80
2024-05-09T21:27:58.341Z,12.79
2024-05-09T21:30:32.924Z,12.72
2024-05-09T21:33:09.535Z,12.78
2024-05-09T21:35:38.550Z,12.77
2024-05-09T21:38:06.899Z,12.77
2024-05-09T21:40:36.163Z,12.76
2024-05-09T21:43:05.896Z,12.77
2024-05-09T21:45:35.106Z,12.75
2024-05-09T21:48:06.310Z,12.74
2024-05-09T21:50:39.890Z,12.72
2024-05-09T21:53:12.882Z,12.73
2024-05-09T21:55:41.973Z,12.73
2024-05-09T21:58:10.307Z,12.72
2024-05-09T22:00:42.282Z,12.71
2024-05-09T22:03:11.131Z,12.69
2024-05-09T22:05:42.146Z,12.65
2024-05-09T22:08:10.503Z,12.65
2024-05-09T22:10:38.043Z,12.63
2024-05-09T22:13:06.563Z,12.61
2024-05-09T22:15:35.239Z,12.60
2024-05-09T22:18:08.059Z,12.59
2024-05-09T22:20:38.889Z,12.58
2024-05-09T22:23:08.329Z,12.58
2024-05-09T22:25:38.099Z,12.57
2024-05-09T22:28:06.094Z,12.56
2024-05-09T22:30:37.591Z,12.54
2024-05-09T22:33:08.496Z,12.52
2024-05-09T22:35:37.168Z,12.50
2024-05-09T22:38:05.278Z,12.48
2024-05-09T22:40:42.524Z,12.47
2024-05-09T22:43:20.684Z,12.46
2024-05-09T22:45:49.957Z,12.45
2024-05-09T22:48:18.064Z,12.43
2024-05-09T22:50:45.654Z,12.41
2024-05-09T22:53:13.414Z,12.40
2024-05-09T22:55:41.310Z,12.39
2024-05-09T22:58:08.847Z,12.39
2024-05-09T23:00:37.646Z,12.36
2024-05-09T23:03:06.476Z,12.35
2024-05-09T23:05:34.380Z,12.36
2024-05-09T23:08:02.293Z,12.35
2024-05-09T23:10:35.753Z,12.34
2024-05-09T23:13:06.589Z,12.31
2024-05-09T23:15:36.713Z,12.27
2024-05-09T23:18:04.923Z,12.25
2024-05-09T23:20:37.177Z,12.23
2024-05-09T23:23:07.950Z,12.23
2024-05-09T23:25:36.542Z,12.22
2024-05-09T23:28:04.532Z,12.20
2024-05-09T23:30:37.954Z,12.21
2024-05-09T23:33:10.365Z,12.18
2024-05-09T23:35:38.939Z,12.22
2024-05-09T23:38:06.509Z,12.19
2024-05-09T23:40:38.744Z,12.21
2024-05-09T23:43:09.991Z,12.23
2024-05-09T23:45:37.988Z,12.23
2024-05-09T23:48:08.069Z,12.22
2024-05-09T23:50:38.274Z,12.23
2024-05-09T23:53:08.832Z,12.24
2024-05-09T23:55:37.655Z,12.23
2024-05-09T23:58:08.856Z,12.24
